Skrydstrup, Denmark
Current Conditions -  °F | °C
As of 1:20 PM on Monday 26 Jan 2015 (Local Time) from EKSP Reporting Station
Drizzle Drizzle  
Wind Chill: 31°   Ceiling: 300
Heat Index: 39°   Visibility: 1.5mi
Dew Point: 37°   Wind: 15mph
Humidity: 93%   Direction: 210°SSW
Pressure: 29.8"   Gusts: NA
Location:  55.24°N, 9.25°E
Report Text: EKSP 261220Z 21013KT 2500 -DZ BR OVC003 04/03 Q1009 TEMPO1200
Loading
Personal Weather Stations






























Interactive Weather Map New forecast layout! Learn more

10-Day Weather Forecast

Advertisements
Track Severe Weather on mobile